Time;durP1;ratioP1;P1;durP2;ratioP2;P2;SDS_P1;SDS_P2;PMS_P1;PMS_P2;Temp;Humidity;BMP_temperature;BMP_pressure;BME280_temperature;BME280_humidity;BME280_pressure;Samples;Min_cycle;Max_cycle;Signal;HPM_P1;HPM_P2
2022/12/25 00:00:48;;;;;;;;;;;5.20;99.90;;;;;;5024181;28;19913;-88
2022/12/25 00:03:13;;;;;;;;;;;5.10;99.90;;;;;;5023553;28;19913;-87
2022/12/25 00:05:39;;;;;;;;;;;5.20;99.90;;;;;;5040345;28;20054;-88
2022/12/25 00:08:05;;;;;;;;;;;5.10;99.90;;;;;;5073224;28;19947;-88
2022/12/25 00:10:31;;;;;;;;;;;5.10;99.90;;;;;;5040737;28;19999;-87
2022/12/25 00:12:57;;;;;;;;;;;5.00;99.90;;;;;;5056938;28;19916;-88
2022/12/25 00:15:23;;;;;;;;;;;5.00;99.90;;;;;;5040150;28;20220;-88
2022/12/25 00:17:49;;;;;;;;;;;5.00;99.90;;;;;;5023924;28;20003;-88
2022/12/25 00:20:15;;;;;;;;;;;5.00;99.90;;;;;;5020037;28;19920;-88
2022/12/25 00:22:40;;;;;;;;;;;5.00;99.90;;;;;;5054233;28;19913;-88
2022/12/25 00:25:06;;;;;;;;;;;5.00;99.90;;;;;;5020940;28;19913;-87
2022/12/25 00:27:32;;;;;;;;;;;5.00;99.90;;;;;;5038619;28;19909;-87
2022/12/25 00:29:59;;;;;;;;;;;5.00;99.90;;;;;;5060247;28;19951;-87
2022/12/25 00:32:25;;;;;;;;;;;5.00;99.90;;;;;;5053730;28;19924;-88
2022/12/25 00:34:51;;;;;;;;;;;5.00;99.90;;;;;;5052886;28;19917;-87
2022/12/25 00:37:17;;;;;;;;;;;5.00;99.90;;;;;;5052973;28;19981;-85
2022/12/25 00:39:42;;;;;;;;;;;5.00;99.90;;;;;;5047501;28;19963;-86
2022/12/25 00:42:18;;;;;;;;;;;5.00;99.90;;;;;;5042762;28;19970;-87
2022/12/25 00:44:44;;;;;;;;;;;5.10;99.90;;;;;;5040296;28;19991;-87
2022/12/25 00:47:10;;;;;;;;;;;5.10;99.90;;;;;;5042406;28;19916;-86
2022/12/25 00:49:36;;;;;;;;;;;5.10;99.90;;;;;;5036014;28;19913;-86
2022/12/25 00:52:02;;;;;;;;;;;5.10;99.90;;;;;;5052633;28;19947;-87
2022/12/25 00:54:28;;;;;;;;;;;5.10;99.90;;;;;;5035548;28;19913;-86
2022/12/25 00:56:53;;;;;;;;;;;5.00;99.90;;;;;;5036203;28;19920;-87
2022/12/25 00:59:19;;;;;;;;;;;5.00;99.90;;;;;;5069599;28;19964;-88
2022/12/25 01:01:45;;;;;;;;;;;5.00;99.90;;;;;;5036447;28;20319;-86
2022/12/25 01:04:11;;;;;;;;;;;5.00;99.90;;;;;;5035618;28;19996;-88
2022/12/25 01:06:38;;;;;;;;;;;5.00;99.90;;;;;;5036146;28;19913;-87
2022/12/25 01:11:48;;;;;;;;;;;5.00;99.90;;;;;;5052590;28;19909;-87
2022/12/25 01:14:15;;;;;;;;;;;5.10;99.90;;;;;;5035445;28;20016;-87
2022/12/25 01:16:41;;;;;;;;;;;5.10;99.90;;;;;;5035575;28;20075;-87
2022/12/25 01:19:07;;;;;;;;;;;5.20;99.90;;;;;;5041469;28;19916;-88
2022/12/25 01:21:33;;;;;;;;;;;5.20;99.90;;;;;;5068768;28;19947;-86
2022/12/25 01:23:58;;;;;;;;;;;5.30;99.90;;;;;;5052372;28;19917;-86
2022/12/25 01:26:25;;;;;;;;;;;5.30;99.90;;;;;;5035337;28;19920;-86
2022/12/25 01:28:52;;;;;;;;;;;5.30;99.90;;;;;;5051884;28;19909;-86
2022/12/25 01:31:19;;;;;;;;;;;5.30;99.90;;;;;;5067996;28;20308;-86
2022/12/25 01:33:45;;;;;;;;;;;5.30;99.90;;;;;;5051358;28;20391;-86
2022/12/25 01:36:15;;;;;;;;;;;5.30;99.90;;;;;;5035209;28;19940;-87
2022/12/25 01:38:42;;;;;;;;;;;5.30;99.90;;;;;;5035262;28;19915;-86
2022/12/25 01:41:08;;;;;;;;;;;5.30;99.90;;;;;;5019447;28;19920;-86
2022/12/25 01:43:34;;;;;;;;;;;5.30;99.90;;;;;;5052270;28;19924;-86
2022/12/25 01:46:02;;;;;;;;;;;5.40;99.90;;;;;;5035941;28;19917;-86
2022/12/25 01:48:31;;;;;;;;;;;5.40;99.90;;;;;;5051359;28;19940;-86
2022/12/25 01:51:04;;;;;;;;;;;5.50;99.90;;;;;;5051961;28;20227;-87
2022/12/25 01:53:30;;;;;;;;;;;5.50;99.90;;;;;;5035158;28;19913;-87
2022/12/25 01:56:00;;;;;;;;;;;5.60;99.90;;;;;;5018435;28;19974;-87
2022/12/25 01:58:27;;;;;;;;;;;5.70;99.90;;;;;;5051465;28;19916;-87
2022/12/25 02:00:54;;;;;;;;;;;5.70;99.90;;;;;;5019126;28;20008;-86
2022/12/25 02:03:20;;;;;;;;;;;5.70;99.90;;;;;;5035418;28;19967;-87
2022/12/25 02:05:46;;;;;;;;;;;5.80;99.90;;;;;;5068977;28;19909;-87
2022/12/25 02:08:15;;;;;;;;;;;5.90;99.90;;;;;;5035001;28;20304;-88
2022/12/25 02:10:43;;;;;;;;;;;6.00;99.90;;;;;;5035450;28;19995;-87
2022/12/25 02:13:11;;;;;;;;;;;6.10;99.90;;;;;;5035297;28;20070;-87
2022/12/25 02:15:52;;;;;;;;;;;6.20;99.90;;;;;;5051725;28;19963;-86
2022/12/25 02:18:30;;;;;;;;;;;6.40;99.90;;;;;;5018135;28;19956;-87
2022/12/25 02:21:02;;;;;;;;;;;6.50;99.90;;;;;;5052101;28;19909;-87
2022/12/25 02:23:36;;;;;;;;;;;6.60;99.90;;;;;;5051743;28;19909;-87
2022/12/25 02:26:17;;;;;;;;;;;6.70;99.90;;;;;;5035520;28;19937;-87
2022/12/25 02:29:01;;;;;;;;;;;6.80;99.90;;;;;;5068771;28;19916;-87
2022/12/25 02:31:36;;;;;;;;;;;6.90;99.90;;;;;;5019093;28;19909;-87
2022/12/25 02:34:11;;;;;;;;;;;6.90;99.90;;;;;;5051033;28;19912;-87
2022/12/25 02:36:41;;;;;;;;;;;7.00;99.90;;;;;;5068486;28;19916;-87
2022/12/25 02:42:01;;;;;;;;;;;7.10;99.90;;;;;;5051613;28;20255;-86
2022/12/25 03:07:15;;;;;;;;;;;7.50;99.90;;;;;;5063110;28;19909;-86
2022/12/25 03:12:42;;;;;;;;;;;7.60;99.90;;;;;;5037847;28;19909;-86
2022/12/25 03:17:55;;;;;;;;;;;7.60;99.90;;;;;;5054508;28;19923;-87
2022/12/25 03:28:35;;;;;;;;;;;7.60;99.90;;;;;;5038411;28;19913;-86
2022/12/25 03:31:15;;;;;;;;;;;7.60;99.90;;;;;;5004724;28;19913;-86
2022/12/25 04:37:46;;;;;;;;;;;8.20;99.90;;;;;;5057045;28;19916;-87
2022/12/25 04:40:12;;;;;;;;;;;8.20;99.90;;;;;;5055993;28;19912;-86
2022/12/25 04:42:38;;;;;;;;;;;8.20;99.90;;;;;;5039327;28;19913;-86
2022/12/25 04:45:04;;;;;;;;;;;8.20;99.90;;;;;;5056205;28;20307;-87
2022/12/25 04:47:31;;;;;;;;;;;8.20;99.90;;;;;;5089466;28;19909;-87
2022/12/25 04:49:56;;;;;;;;;;;8.20;99.90;;;;;;5022474;28;20335;-86
2022/12/25 04:52:22;;;;;;;;;;;8.20;99.90;;;;;;5023040;28;20018;-87
2022/12/25 04:54:48;;;;;;;;;;;8.20;99.90;;;;;;5072613;28;19909;-87
2022/12/25 04:57:14;;;;;;;;;;;8.20;99.90;;;;;;5039755;28;19913;-87
2022/12/25 04:59:40;;;;;;;;;;;8.20;99.90;;;;;;5055817;28;19963;-87
2022/12/25 05:02:06;;;;;;;;;;;8.20;99.90;;;;;;5055973;28;20227;-87
2022/12/25 05:04:32;;;;;;;;;;;8.20;99.90;;;;;;5022514;28;19944;-87
2022/12/25 05:06:58;;;;;;;;;;;8.20;99.90;;;;;;5038740;28;19952;-87
2022/12/25 05:09:24;;;;;;;;;;;8.10;99.90;;;;;;5050881;28;19908;-88
2022/12/25 05:11:50;;;;;;;;;;;8.10;99.90;;;;;;5060973;28;19896;-89
2022/12/25 05:14:16;;;;;;;;;;;8.10;99.90;;;;;;5076307;28;19914;-87
2022/12/25 05:16:42;;;;;;;;;;;8.10;99.90;;;;;;5041197;28;19919;-87
2022/12/25 05:19:07;;;;;;;;;;;8.10;99.90;;;;;;5057075;28;19916;-86
2022/12/25 05:21:33;;;;;;;;;;;8.00;99.90;;;;;;5022850;28;19912;-87
2022/12/25 05:23:59;;;;;;;;;;;8.00;99.90;;;;;;5022580;28;19924;-86
2022/12/25 05:26:25;;;;;;;;;;;7.90;99.90;;;;;;5055580;28;19935;-86
2022/12/25 05:28:52;;;;;;;;;;;7.90;99.90;;;;;;5055415;28;19909;-86
2022/12/25 05:31:18;;;;;;;;;;;7.90;99.90;;;;;;5072081;28;19935;-87
2022/12/25 05:33:44;;;;;;;;;;;7.90;99.90;;;;;;5038041;28;19960;-87
2022/12/25 05:36:11;;;;;;;;;;;7.90;99.90;;;;;;5055491;28;19955;-87
2022/12/25 05:38:37;;;;;;;;;;;7.80;99.90;;;;;;5089092;28;20224;-87
2022/12/25 05:41:03;;;;;;;;;;;7.80;99.90;;;;;;5072418;28;20300;-86
2022/12/25 05:43:29;;;;;;;;;;;7.80;99.90;;;;;;5055359;28;20006;-87
2022/12/25 05:45:55;;;;;;;;;;;7.80;99.90;;;;;;5056269;28;19909;-86
2022/12/25 05:48:21;;;;;;;;;;;7.90;99.90;;;;;;5038511;28;19943;-87
2022/12/25 05:50:47;;;;;;;;;;;7.80;99.90;;;;;;5038262;28;20244;-87
2022/12/25 05:53:13;;;;;;;;;;;7.90;99.90;;;;;;5071862;28;19924;-86
2022/12/25 05:55:40;;;;;;;;;;;7.90;99.90;;;;;;5055149;28;19917;-87
2022/12/25 05:58:06;;;;;;;;;;;7.90;99.90;;;;;;5022015;28;20308;-87
2022/12/25 06:00:32;;;;;;;;;;;7.90;99.90;;;;;;5055247;28;19909;-87
2022/12/25 06:02:58;;;;;;;;;;;7.90;99.90;;;;;;5054807;28;19915;-87
2022/12/25 06:05:25;;;;;;;;;;;7.90;99.90;;;;;;5055234;28;20011;-87
2022/12/25 06:07:50;;;;;;;;;;;7.90;99.90;;;;;;5055264;28;20326;-86
2022/12/25 06:10:17;;;;;;;;;;;7.90;99.90;;;;;;5055180;28;19948;-86
2022/12/25 06:12:43;;;;;;;;;;;7.90;99.90;;;;;;5038325;28;20326;-87
2022/12/25 06:15:09;;;;;;;;;;;8.00;99.90;;;;;;5071894;28;19917;-87
2022/12/25 06:17:34;;;;;;;;;;;8.00;99.90;;;;;;5038389;28;19972;-87
2022/12/25 06:20:00;;;;;;;;;;;8.00;99.90;;;;;;5074571;28;19915;-86
2022/12/25 06:22:30;;;;;;;;;;;8.00;99.90;;;;;;5039503;28;19916;-86
2022/12/25 06:24:55;;;;;;;;;;;8.00;99.90;;;;;;5055387;28;19909;-87
2022/12/25 06:27:21;;;;;;;;;;;8.00;99.90;;;;;;5056120;28;19959;-86
2022/12/25 06:29:47;;;;;;;;;;;8.00;99.90;;;;;;5039114;28;19909;-86
2022/12/25 06:32:13;;;;;;;;;;;8.00;99.90;;;;;;5059156;28;19917;-86
2022/12/25 06:34:39;;;;;;;;;;;8.00;99.90;;;;;;5066771;28;19925;-86
2022/12/25 06:37:04;;;;;;;;;;;8.10;99.90;;;;;;5071532;28;19913;-87
2022/12/25 06:39:30;;;;;;;;;;;8.10;99.90;;;;;;5067459;28;20296;-86
2022/12/25 06:41:56;;;;;;;;;;;8.10;99.90;;;;;;5038776;28;19932;-87
2022/12/25 06:44:22;;;;;;;;;;;8.10;99.90;;;;;;5039252;28;19980;-87
2022/12/25 06:46:48;;;;;;;;;;;8.10;99.90;;;;;;5034112;28;19931;-88
2022/12/25 06:49:14;;;;;;;;;;;8.10;99.90;;;;;;5057340;28;19939;-90
2022/12/25 06:51:40;;;;;;;;;;;8.10;99.90;;;;;;5073143;28;19921;-88
2022/12/25 06:54:06;;;;;;;;;;;8.10;99.90;;;;;;5052395;28;20368;-87
2022/12/25 06:56:32;;;;;;;;;;;8.10;99.90;;;;;;5058692;28;19919;-87
2022/12/25 06:58:59;;;;;;;;;;;8.20;99.90;;;;;;5058466;28;19909;-88
2022/12/25 07:01:29;;;;;;;;;;;8.20;99.90;;;;;;5040159;28;19915;-87
2022/12/25 07:03:57;;;;;;;;;;;8.20;99.90;;;;;;5025307;28;19909;-87
2022/12/25 07:06:23;;;;;;;;;;;8.20;99.90;;;;;;5025145;28;19932;-87
2022/12/25 07:08:48;;;;;;;;;;;8.20;99.90;;;;;;5057750;28;19936;-87
2022/12/25 07:11:14;;;;;;;;;;;8.20;99.90;;;;;;5041773;28;19967;-87
2022/12/25 07:13:40;;;;;;;;;;;8.20;99.90;;;;;;5008486;28;20389;-87
2022/12/25 07:16:06;;;;;;;;;;;8.20;99.90;;;;;;5039398;28;19917;-87
2022/12/25 07:18:32;;;;;;;;;;;8.30;99.90;;;;;;5056167;28;19936;-87
2022/12/25 07:21:04;;;;;;;;;;;8.20;99.90;;;;;;5063732;28;19948;-87
2022/12/25 07:23:30;;;;;;;;;;;8.30;99.90;;;;;;5028989;28;19932;-88
2022/12/25 07:25:59;;;;;;;;;;;8.30;99.90;;;;;;5054919;28;20304;-87
2022/12/25 07:28:25;;;;;;;;;;;8.30;99.90;;;;;;5048325;28;19901;-87
2022/12/25 07:30:52;;;;;;;;;;;8.30;99.90;;;;;;5058749;28;19940;-87
2022/12/25 07:33:18;;;;;;;;;;;8.30;99.90;;;;;;5053639;28;20248;-87
2022/12/25 07:35:44;;;;;;;;;;;8.30;99.90;;;;;;5047128;28;19931;-86
2022/12/25 07:38:10;;;;;;;;;;;8.40;99.90;;;;;;5058467;28;19922;-86
2022/12/25 07:40:36;;;;;;;;;;;8.40;99.90;;;;;;5057787;28;19931;-87
2022/12/25 07:43:01;;;;;;;;;;;8.40;99.90;;;;;;5034827;28;19913;-87
2022/12/25 07:45:28;;;;;;;;;;;8.40;99.90;;;;;;5069195;28;19913;-87
2022/12/25 07:47:54;;;;;;;;;;;8.40;99.90;;;;;;5058253;28;19935;-88
2022/12/25 07:50:19;;;;;;;;;;;8.50;99.90;;;;;;5058589;28;20296;-87
2022/12/25 07:52:45;;;;;;;;;;;8.50;99.90;;;;;;5074235;28;20303;-87
2022/12/25 07:55:12;;;;;;;;;;;8.50;99.90;;;;;;5057500;28;19919;-88
2022/12/25 07:57:38;;;;;;;;;;;8.40;99.90;;;;;;5037797;28;19908;-87
2022/12/25 08:00:05;;;;;;;;;;;8.40;99.90;;;;;;5057104;28;19917;-88
2022/12/25 08:02:37;;;;;;;;;;;8.50;99.90;;;;;;5041987;28;19920;-88
2022/12/25 08:05:04;;;;;;;;;;;8.40;99.90;;;;;;5040925;28;19909;-89
2022/12/25 08:07:29;;;;;;;;;;;8.40;99.90;;;;;;5027492;28;19927;-89
2022/12/25 08:09:55;;;;;;;;;;;8.40;99.90;;;;;;5027169;28;19913;-87
2022/12/25 08:12:21;;;;;;;;;;;8.40;99.90;;;;;;5027286;28;20022;-88
2022/12/25 08:14:47;;;;;;;;;;;8.30;99.90;;;;;;5045972;28;19912;-90
2022/12/25 08:17:13;;;;;;;;;;;8.30;99.90;;;;;;5046464;28;19931;-88
2022/12/25 08:19:38;;;;;;;;;;;8.20;99.90;;;;;;5028011;28;19924;-88
2022/12/25 08:22:04;;;;;;;;;;;8.20;99.90;;;;;;5026479;28;19912;-88
2022/12/25 08:24:30;;;;;;;;;;;8.20;99.90;;;;;;5041291;28;20334;-87
2022/12/25 08:26:56;;;;;;;;;;;8.20;99.90;;;;;;5038830;28;19913;-87
2022/12/25 08:29:22;;;;;;;;;;;8.20;99.90;;;;;;5040723;28;19913;-87
2022/12/25 08:31:48;;;;;;;;;;;8.20;99.90;;;;;;5028391;28;20011;-88
2022/12/25 08:34:14;;;;;;;;;;;8.20;99.90;;;;;;5053842;28;20312;-88
2022/12/25 08:36:40;;;;;;;;;;;8.20;99.90;;;;;;5008833;28;20316;-87
2022/12/25 08:39:06;;;;;;;;;;;8.20;99.90;;;;;;5026618;28;19920;-88
2022/12/25 08:41:35;;;;;;;;;;;8.20;99.90;;;;;;5040321;28;20043;-88
2022/12/25 08:44:01;;;;;;;;;;;8.20;99.90;;;;;;5039269;28;20006;-88
2022/12/25 08:46:27;;;;;;;;;;;8.20;99.90;;;;;;5068050;28;19916;-88
2022/12/25 08:48:55;;;;;;;;;;;8.30;99.90;;;;;;5038377;28;19913;-87
2022/12/25 08:51:21;;;;;;;;;;;8.30;99.90;;;;;;5052425;28;20259;-88
2022/12/25 08:53:48;;;;;;;;;;;8.30;99.90;;;;;;5057152;28;20414;-89
2022/12/25 08:56:14;;;;;;;;;;;8.30;99.90;;;;;;5072248;28;19916;-86
2022/12/25 08:58:40;;;;;;;;;;;8.30;99.90;;;;;;5039146;28;19934;-87
2022/12/25 09:01:07;;;;;;;;;;;8.30;99.90;;;;;;5055587;28;19912;-87
2022/12/25 09:03:33;;;;;;;;;;;8.30;99.90;;;;;;5022732;28;19909;-87
2022/12/25 09:06:03;;;;;;;;;;;8.30;99.90;;;;;;5044009;28;19920;-87
2022/12/25 09:08:29;;;;;;;;;;;8.30;99.90;;;;;;5014344;28;19917;-87
2022/12/25 09:10:55;;;;;;;;;;;8.30;99.90;;;;;;5037756;28;20224;-87
2022/12/25 09:13:21;;;;;;;;;;;8.40;99.90;;;;;;5052125;28;20203;-86
2022/12/25 09:15:46;;;;;;;;;;;8.30;99.90;;;;;;5049471;28;19935;-87
2022/12/25 09:18:12;;;;;;;;;;;8.30;99.90;;;;;;5021633;28;19920;-87
2022/12/25 09:20:38;;;;;;;;;;;8.30;99.90;;;;;;5044191;28;20312;-87
2022/12/25 09:23:04;;;;;;;;;;;8.40;99.90;;;;;;5054390;28;19909;-89
2022/12/25 09:25:30;;;;;;;;;;;8.40;99.90;;;;;;5056780;28;19947;-90
2022/12/25 09:27:56;;;;;;;;;;;8.40;99.90;;;;;;5062237;28;19912;-89
2022/12/25 09:30:22;;;;;;;;;;;8.40;99.90;;;;;;5050588;28;19962;-89
2022/12/25 09:32:48;;;;;;;;;;;8.40;99.90;;;;;;5059510;28;19920;-90
2022/12/25 09:35:16;;;;;;;;;;;8.40;99.90;;;;;;5032636;28;19924;-89
2022/12/25 09:37:42;;;;;;;;;;;8.50;99.90;;;;;;5064944;28;19915;-88
2022/12/25 09:40:11;;;;;;;;;;;8.50;99.90;;;;;;5049517;28;19908;-88
2022/12/25 09:42:37;;;;;;;;;;;8.50;99.90;;;;;;5059358;28;19912;-88
2022/12/25 09:45:04;;;;;;;;;;;8.50;99.90;;;;;;5038080;28;19939;-88
2022/12/25 09:47:32;;;;;;;;;;;8.50;99.90;;;;;;5022176;28;19920;-88
2022/12/25 09:50:01;;;;;;;;;;;8.50;99.90;;;;;;5036363;28;19909;-87
2022/12/25 09:52:34;;;;;;;;;;;8.50;99.90;;;;;;5038487;28;19908;-88
2022/12/25 09:55:09;;;;;;;;;;;8.50;99.90;;;;;;5041480;28;19917;-90
2022/12/25 09:57:35;;;;;;;;;;;8.60;99.90;;;;;;5025594;28;19915;-91
2022/12/25 10:00:02;;;;;;;;;;;8.50;99.90;;;;;;5075202;28;19936;-87
2022/12/25 10:02:36;;;;;;;;;;;8.60;99.90;;;;;;5042699;28;19952;-88
2022/12/25 10:05:11;;;;;;;;;;;8.60;99.90;;;;;;5025335;28;19909;-88
2022/12/25 10:07:46;;;;;;;;;;;8.60;99.90;;;;;;5040164;28;19914;-87
2022/12/25 10:10:21;;;;;;;;;;;8.60;99.90;;;;;;5039382;28;19967;-87
2022/12/25 10:13:05;;;;;;;;;;;8.60;99.90;;;;;;5023194;28;19935;-87
2022/12/25 10:15:45;;;;;;;;;;;8.60;99.90;;;;;;5040368;28;19909;-87
2022/12/25 10:18:23;;;;;;;;;;;8.60;99.90;;;;;;5039594;28;19929;-87
2022/12/25 10:20:51;;;;;;;;;;;8.60;99.90;;;;;;5039670;28;20016;-87
2022/12/25 10:23:18;;;;;;;;;;;8.60;99.90;;;;;;5039412;28;20304;-87
2022/12/25 10:25:44;;;;;;;;;;;8.60;99.90;;;;;;5039543;28;19916;-88
2022/12/25 10:28:13;;;;;;;;;;;8.60;99.90;;;;;;5039728;28;19916;-88
2022/12/25 10:30:41;;;;;;;;;;;8.60;99.90;;;;;;5039872;28;19909;-87
2022/12/25 10:33:08;;;;;;;;;;;8.60;99.90;;;;;;5039100;28;19913;-87
2022/12/25 10:35:36;;;;;;;;;;;8.60;99.90;;;;;;5039407;28;19913;-87
2022/12/25 10:38:08;;;;;;;;;;;8.60;99.90;;;;;;5056074;28;20055;-88
2022/12/25 10:40:34;;;;;;;;;;;8.70;99.90;;;;;;5039590;28;19963;-87
2022/12/25 10:43:07;;;;;;;;;;;8.60;99.90;;;;;;5022411;28;19963;-87
2022/12/25 10:45:41;;;;;;;;;;;8.70;99.90;;;;;;5039463;28;20228;-87
2022/12/25 10:48:07;;;;;;;;;;;8.70;99.90;;;;;;5039037;28;19909;-88
2022/12/25 10:50:33;;;;;;;;;;;8.70;99.90;;;;;;5039334;28;19909;-87
2022/12/25 10:53:01;;;;;;;;;;;8.70;99.90;;;;;;5023381;28;19920;-87
2022/12/25 10:55:27;;;;;;;;;;;8.70;99.90;;;;;;5039166;28;19909;-87
2022/12/25 10:57:53;;;;;;;;;;;8.70;99.90;;;;;;5057259;28;19928;-88
2022/12/25 11:00:20;;;;;;;;;;;8.70;99.90;;;;;;5055501;28;19939;-87
2022/12/25 11:02:46;;;;;;;;;;;8.80;99.90;;;;;;5006010;28;19913;-87
2022/12/25 11:05:14;;;;;;;;;;;8.80;99.90;;;;;;5038762;28;20323;-87
2022/12/25 11:07:53;;;;;;;;;;;8.80;99.90;;;;;;5038547;28;19917;-86
2022/12/25 11:10:18;;;;;;;;;;;8.80;99.90;;;;;;5038653;28;19920;-87
2022/12/25 11:12:45;;;;;;;;;;;8.80;99.90;;;;;;5056566;28;19909;-88
2022/12/25 11:15:30;;;;;;;;;;;8.80;99.90;;;;;;5038522;28;20308;-88
2022/12/25 11:17:55;;;;;;;;;;;8.80;99.90;;;;;;5021210;28;20264;-88
2022/12/25 11:20:21;;;;;;;;;;;8.90;99.90;;;;;;5021730;28;19948;-87
2022/12/25 11:22:48;;;;;;;;;;;8.90;99.90;;;;;;5038449;28;19917;-87
2022/12/25 11:25:20;;;;;;;;;;;8.90;99.90;;;;;;5054625;28;19979;-87
2022/12/25 11:27:54;;;;;;;;;;;9.00;99.90;;;;;;5038106;28;20217;-87
2022/12/25 11:30:20;;;;;;;;;;;9.00;99.90;;;;;;5054587;28;19916;-87
2022/12/25 11:32:51;;;;;;;;;;;9.00;99.90;;;;;;5037639;28;19913;-87
2022/12/25 11:35:17;;;;;;;;;;;9.00;99.90;;;;;;5021339;28;20105;-87
2022/12/25 11:37:45;;;;;;;;;;;9.00;99.90;;;;;;5038136;28;19987;-87
2022/12/25 11:40:15;;;;;;;;;;;9.00;99.90;;;;;;5037808;28;19917;-87
2022/12/25 11:42:44;;;;;;;;;;;9.00;99.90;;;;;;5037616;28;19909;-88
2022/12/25 11:45:16;;;;;;;;;;;9.10;99.90;;;;;;5037685;28;19917;-87
2022/12/25 11:48:00;;;;;;;;;;;9.10;99.90;;;;;;5054315;28;19940;-87
2022/12/25 11:50:32;;;;;;;;;;;9.10;99.90;;;;;;5054417;28;20230;-87
2022/12/25 11:53:01;;;;;;;;;;;9.10;99.90;;;;;;5037814;28;19920;-88
2022/12/25 11:55:34;;;;;;;;;;;9.10;99.90;;;;;;5022214;28;19916;-87
2022/12/25 11:58:03;;;;;;;;;;;9.20;99.90;;;;;;5021630;28;20292;-88
2022/12/25 12:00:29;;;;;;;;;;;9.10;99.90;;;;;;5022200;28;19955;-86
2022/12/25 12:03:09;;;;;;;;;;;9.20;99.90;;;;;;5037281;28;19913;-87
2022/12/25 12:05:44;;;;;;;;;;;9.20;99.90;;;;;;5021188;28;19909;-87
2022/12/25 12:08:10;;;;;;;;;;;9.20;99.90;;;;;;5053806;28;20319;-87
2022/12/25 12:10:36;;;;;;;;;;;9.20;99.90;;;;;;5021110;28;20235;-87
2022/12/25 12:13:37;;;;;;;;;;;9.20;99.90;;;;;;5036881;28;19958;-88
2022/12/25 12:16:04;;;;;;;;;;;9.20;99.90;;;;;;4996271;28;20233;-88
2022/12/25 12:18:31;;;;;;;;;;;9.20;99.90;;;;;;5047514;28;19978;-87
2022/12/25 12:21:00;;;;;;;;;;;9.20;99.90;;;;;;5047472;28;19960;-87
2022/12/25 12:23:27;;;;;;;;;;;9.20;99.90;;;;;;5078516;28;19900;-85
2022/12/25 12:25:53;;;;;;;;;;;9.20;99.90;;;;;;5111298;28;19919;-86
2022/12/25 12:28:20;;;;;;;;;;;9.20;99.90;;;;;;5036593;28;19920;-88
2022/12/25 12:30:55;;;;;;;;;;;9.30;99.90;;;;;;5069267;28;19991;-86
2022/12/25 12:33:21;;;;;;;;;;;9.20;99.90;;;;;;5044797;28;19932;-87
2022/12/25 12:35:47;;;;;;;;;;;9.30;99.90;;;;;;5057211;28;19912;-87
2022/12/25 12:38:16;;;;;;;;;;;9.20;99.90;;;;;;5024270;28;19964;-87
2022/12/25 12:40:43;;;;;;;;;;;9.20;99.90;;;;;;5065775;28;20003;-86
2022/12/25 12:43:41;;;;;;;;;;;9.20;99.90;;;;;;5050014;28;20011;-88
2022/12/25 12:46:14;;;;;;;;;;;9.20;99.90;;;;;;5069395;28;19962;-87
2022/12/25 12:48:42;;;;;;;;;;;9.20;99.90;;;;;;5056777;28;19935;-86
2022/12/25 12:51:12;;;;;;;;;;;9.20;99.90;;;;;;5056762;28;19908;-87
2022/12/25 12:53:39;;;;;;;;;;;9.20;99.90;;;;;;5056675;28;20023;-87
2022/12/25 12:56:09;;;;;;;;;;;9.20;99.90;;;;;;5056552;28;19913;-88
2022/12/25 12:58:36;;;;;;;;;;;9.20;99.90;;;;;;5039868;28;19908;-87
2022/12/25 13:01:38;;;;;;;;;;;9.20;99.90;;;;;;5056533;28;19987;-86
2022/12/25 13:04:07;;;;;;;;;;;9.20;99.90;;;;;;5051584;28;19909;-86
2022/12/25 13:06:42;;;;;;;;;;;9.10;99.90;;;;;;5032725;28;19931;-86
2022/12/25 13:09:14;;;;;;;;;;;9.10;99.90;;;;;;5056177;28;19931;-87
2022/12/25 13:11:41;;;;;;;;;;;9.10;99.90;;;;;;5039466;28;19913;-87
2022/12/25 13:14:18;;;;;;;;;;;9.10;99.90;;;;;;5055798;28;19919;-87
2022/12/25 13:16:45;;;;;;;;;;;9.10;99.90;;;;;;5039393;28;19919;-87
2022/12/25 13:19:13;;;;;;;;;;;9.10;99.90;;;;;;5038774;28;20401;-87
2022/12/25 13:21:38;;;;;;;;;;;9.00;99.90;;;;;;5055748;28;19916;-86
2022/12/25 13:24:07;;;;;;;;;;;9.10;99.90;;;;;;5038947;28;20224;-87
2022/12/25 13:26:34;;;;;;;;;;;9.10;99.90;;;;;;5072380;28;19909;-86
2022/12/25 13:29:00;;;;;;;;;;;9.10;99.90;;;;;;5054785;28;20256;-86
2022/12/25 13:31:27;;;;;;;;;;;9.10;99.90;;;;;;5072132;28;20015;-86
2022/12/25 13:34:02;;;;;;;;;;;9.00;99.90;;;;;;5055180;28;19916;-87
2022/12/25 13:36:29;;;;;;;;;;;9.10;99.90;;;;;;5038944;28;19919;-87
2022/12/25 13:38:56;;;;;;;;;;;9.10;99.90;;;;;;5055696;28;19909;-87
2022/12/25 13:44:14;;;;;;;;;;;9.10;99.90;;;;;;5055713;28;19912;-88
2022/12/25 13:46:40;;;;;;;;;;;9.10;99.90;;;;;;5072267;28;19962;-87
2022/12/25 13:49:12;;;;;;;;;;;9.10;99.90;;;;;;5054959;28;19913;-87
2022/12/25 13:51:38;;;;;;;;;;;9.10;99.90;;;;;;5055434;28;20318;-87
2022/12/25 13:54:04;;;;;;;;;;;9.00;99.90;;;;;;5071778;28;19916;-87
2022/12/25 13:56:31;;;;;;;;;;;9.10;99.90;;;;;;5055215;28;20706;-87
2022/12/25 13:58:56;;;;;;;;;;;9.00;99.90;;;;;;5038826;28;20177;-87
2022/12/25 14:01:22;;;;;;;;;;;9.00;99.90;;;;;;5088978;28;19920;-87
2022/12/25 14:03:48;;;;;;;;;;;9.00;99.90;;;;;;5055366;28;19913;-87
2022/12/25 14:06:20;;;;;;;;;;;9.00;99.90;;;;;;5055075;28;19912;-87
2022/12/25 14:08:46;;;;;;;;;;;9.00;99.90;;;;;;5071844;28;19915;-86
2022/12/25 14:11:14;;;;;;;;;;;9.00;99.90;;;;;;5071446;28;19909;-88
2022/12/25 14:13:41;;;;;;;;;;;9.00;99.90;;;;;;5071994;28;19912;-87
2022/12/25 14:16:08;;;;;;;;;;;9.00;99.90;;;;;;5038635;28;20532;-86
2022/12/25 14:18:36;;;;;;;;;;;9.00;99.90;;;;;;5054887;28;19913;-87
2022/12/25 14:21:06;;;;;;;;;;;9.00;99.90;;;;;;5038484;28;19909;-87
2022/12/25 14:23:39;;;;;;;;;;;9.00;99.90;;;;;;5022010;28;19917;-86
2022/12/25 14:26:05;;;;;;;;;;;9.00;99.90;;;;;;5039026;28;19915;-87
2022/12/25 14:28:33;;;;;;;;;;;9.00;99.90;;;;;;5055070;28;19912;-86
2022/12/25 14:30:59;;;;;;;;;;;9.00;99.90;;;;;;5072194;28;20007;-87
2022/12/25 14:33:26;;;;;;;;;;;9.00;99.90;;;;;;5037740;28;19916;-86
2022/12/25 14:35:52;;;;;;;;;;;9.00;99.90;;;;;;5054696;28;20231;-87
2022/12/25 14:38:21;;;;;;;;;;;9.00;99.90;;;;;;5021804;28;19913;-87
2022/12/25 14:40:56;;;;;;;;;;;9.00;99.90;;;;;;5059053;28;19916;-87
2022/12/25 14:43:26;;;;;;;;;;;9.00;99.90;;;;;;5042594;28;19947;-87
2022/12/25 14:46:02;;;;;;;;;;;9.00;99.90;;;;;;5042615;28;19912;-87
2022/12/25 14:48:29;;;;;;;;;;;8.90;99.90;;;;;;5045938;28;19915;-87
2022/12/25 14:50:58;;;;;;;;;;;8.90;99.90;;;;;;5063319;28;19912;-89
2022/12/25 14:53:30;;;;;;;;;;;8.90;99.90;;;;;;5080156;28;19921;-87
2022/12/25 14:55:56;;;;;;;;;;;8.90;99.90;;;;;;5069725;28;19963;-87
2022/12/25 14:58:25;;;;;;;;;;;8.90;99.90;;;;;;5061051;28;19909;-87
2022/12/25 15:00:58;;;;;;;;;;;8.90;99.90;;;;;;5044088;28;19909;-87
2022/12/25 15:03:33;;;;;;;;;;;8.90;99.90;;;;;;5058153;28;19909;-87
2022/12/25 15:06:01;;;;;;;;;;;8.90;99.90;;;;;;5041973;28;19964;-87
2022/12/25 15:08:27;;;;;;;;;;;8.90;99.90;;;;;;5058425;28;20254;-87
2022/12/25 15:10:54;;;;;;;;;;;8.90;99.90;;;;;;5041861;28;20284;-87
2022/12/25 15:13:20;;;;;;;;;;;8.90;99.90;;;;;;5058105;28;19924;-87
2022/12/25 15:15:51;;;;;;;;;;;8.90;99.90;;;;;;5058370;28;19913;-86
2022/12/25 15:18:18;;;;;;;;;;;8.90;99.90;;;;;;5074447;28;19917;-86
2022/12/25 15:20:44;;;;;;;;;;;8.80;99.90;;;;;;5041724;28;20307;-86
2022/12/25 15:23:13;;;;;;;;;;;8.80;99.90;;;;;;5074826;28;19917;-86
2022/12/25 15:25:39;;;;;;;;;;;8.80;99.90;;;;;;5074763;28;19919;-87
2022/12/25 15:28:05;;;;;;;;;;;8.80;99.90;;;;;;5025365;28;19913;-87
2022/12/25 15:30:34;;;;;;;;;;;8.80;99.90;;;;;;5041308;28;20335;-86
2022/12/25 15:33:00;;;;;;;;;;;8.80;99.90;;;;;;5041092;28;19940;-87
2022/12/25 15:35:26;;;;;;;;;;;8.80;99.90;;;;;;5057449;28;19913;-87
2022/12/25 15:37:51;;;;;;;;;;;8.80;99.90;;;;;;5041261;28;19913;-87
2022/12/25 15:40:20;;;;;;;;;;;8.80;99.90;;;;;;5057428;28;19909;-88
2022/12/25 15:42:46;;;;;;;;;;;8.80;99.90;;;;;;5074501;28;19917;-86
2022/12/25 15:45:32;;;;;;;;;;;8.80;99.90;;;;;;5057366;28;20303;-87
2022/12/25 15:47:58;;;;;;;;;;;8.80;99.90;;;;;;5056560;28;19909;-87
2022/12/25 15:50:24;;;;;;;;;;;8.80;99.90;;;;;;5072795;28;20321;-87
2022/12/25 15:52:50;;;;;;;;;;;8.80;99.90;;;;;;5057368;28;19916;-86
2022/12/25 15:55:16;;;;;;;;;;;8.80;99.90;;;;;;5074246;28;19913;-87
2022/12/25 15:57:43;;;;;;;;;;;8.80;99.90;;;;;;5058531;28;19909;-87
2022/12/25 16:00:13;;;;;;;;;;;8.80;99.90;;;;;;5041107;28;19919;-87
2022/12/25 16:02:40;;;;;;;;;;;8.80;99.90;;;;;;5057405;28;19909;-87
2022/12/25 16:05:06;;;;;;;;;;;8.80;99.90;;;;;;5057366;28;19920;-87
2022/12/25 16:07:32;;;;;;;;;;;8.80;99.90;;;;;;5074515;28;19912;-87
2022/12/25 16:09:58;;;;;;;;;;;8.80;99.90;;;;;;5057077;28;20022;-87
2022/12/25 16:12:24;;;;;;;;;;;8.80;99.90;;;;;;5050634;28;19948;-88
2022/12/25 16:14:50;;;;;;;;;;;8.70;99.90;;;;;;5062716;28;20000;-88
2022/12/25 16:17:16;;;;;;;;;;;8.80;99.90;;;;;;5018440;28;20331;-88
2022/12/25 16:19:43;;;;;;;;;;;8.80;99.90;;;;;;5028619;28;19948;-86
2022/12/25 16:22:10;;;;;;;;;;;8.80;99.90;;;;;;5052987;28;20002;-88
2022/12/25 16:24:36;;;;;;;;;;;8.80;99.90;;;;;;5019624;28;19959;-88